createdAt,value
2018-06-25T00:01:27.317Z,14.70
2018-06-25T00:04:30.648Z,14.65
2018-06-25T00:07:34.248Z,14.65
2018-06-25T00:10:37.729Z,14.69
2018-06-25T00:13:55.565Z,14.62
2018-06-25T00:16:58.763Z,14.52
2018-06-25T00:20:02.112Z,14.51
2018-06-25T00:23:05.409Z,14.44
2018-06-25T00:26:08.735Z,14.46
2018-06-25T00:29:12.026Z,14.41
2018-06-25T00:32:16.247Z,14.38
2018-06-25T00:35:19.493Z,14.28
2018-06-25T00:38:23.894Z,14.25
2018-06-25T00:41:27.230Z,14.25
2018-06-25T00:44:30.598Z,14.25
2018-06-25T00:47:33.788Z,14.27
2018-06-25T00:50:37.106Z,14.27
2018-06-25T00:53:40.326Z,14.20
2018-06-25T00:56:43.698Z,14.15
2018-06-25T00:59:53.500Z,14.10
2018-06-25T01:02:56.629Z,14.03
2018-06-25T01:05:59.926Z,13.98
2018-06-25T01:09:05.255Z,13.98
2018-06-25T01:12:08.514Z,14.15
2018-06-25T01:15:11.695Z,14.25
2018-06-25T01:18:14.786Z,14.33
2018-06-25T01:21:18.032Z,14.35
2018-06-25T01:24:21.198Z,14.36
2018-06-25T01:27:24.605Z,14.43
2018-06-25T01:30:27.743Z,14.35
2018-06-25T01:33:30.978Z,14.34
2018-06-25T01:36:34.163Z,14.31
2018-06-25T01:39:37.372Z,14.29
2018-06-25T01:42:40.683Z,14.25
2018-06-25T01:45:43.828Z,14.25
2018-06-25T01:48:47.208Z,14.23
2018-06-25T01:51:50.458Z,14.28
2018-06-25T01:54:53.689Z,14.31
2018-06-25T01:57:56.921Z,14.29
2018-06-25T02:00:59.848Z,14.28
2018-06-25T02:04:02.917Z,14.31
2018-06-25T02:07:06.060Z,14.26
2018-06-25T02:10:09.503Z,14.27
2018-06-25T02:13:12.744Z,14.29
2018-06-25T02:16:16.020Z,14.27
2018-06-25T02:19:19.248Z,14.25
2018-06-25T02:22:22.401Z,14.26
2018-06-25T02:25:25.546Z,14.27
2018-06-25T02:28:28.715Z,14.31
2018-06-25T02:31:31.987Z,14.33
2018-06-25T02:34:35.383Z,14.35
2018-06-25T02:37:38.685Z,14.35
2018-06-25T02:40:42.063Z,14.34
2018-06-25T02:43:45.341Z,14.29
2018-06-25T02:46:48.399Z,14.27
2018-06-25T02:49:52.501Z,14.26
2018-06-25T02:52:55.625Z,14.25
2018-06-25T02:55:58.637Z,14.28
2018-06-25T02:59:01.995Z,14.33
2018-06-25T03:02:05.160Z,14.23
2018-06-25T03:05:09.409Z,14.32
2018-06-25T03:08:12.684Z,14.24
2018-06-25T03:11:16.011Z,14.22
2018-06-25T03:14:19.265Z,14.21
2018-06-25T03:17:22.614Z,14.21
2018-06-25T03:20:25.898Z,14.20
2018-06-25T03:23:29.055Z,14.21
2018-06-25T03:26:32.367Z,14.24
2018-06-25T03:29:35.575Z,14.21
2018-06-25T03:32:38.773Z,14.23
2018-06-25T03:35:41.806Z,14.30
2018-06-25T03:38:44.974Z,14.34
2018-06-25T03:41:48.054Z,14.30
2018-06-25T03:44:51.340Z,14.29
2018-06-25T03:47:54.882Z,14.33
2018-06-25T03:50:58.202Z,14.36
2018-06-25T03:54:01.577Z,14.36
2018-06-25T03:57:04.798Z,14.44
2018-06-25T04:00:08.203Z,14.38
2018-06-25T04:03:11.532Z,14.43
2018-06-25T04:06:14.794Z,14.50
2018-06-25T04:09:17.986Z,14.49
2018-06-25T04:12:21.116Z,14.52
2018-06-25T04:15:24.186Z,14.50
2018-06-25T04:18:27.339Z,14.48
2018-06-25T04:21:30.664Z,14.48
2018-06-25T04:24:33.764Z,14.38
2018-06-25T04:27:37.040Z,14.47
2018-06-25T04:30:40.239Z,14.40
2018-06-25T04:33:43.302Z,14.48
2018-06-25T04:36:46.398Z,14.50
2018-06-25T04:39:49.776Z,14.49
2018-06-25T04:42:53.287Z,14.44
2018-06-25T04:45:56.386Z,14.44
2018-06-25T04:49:03.159Z,14.55
2018-06-25T04:52:06.240Z,14.63
2018-06-25T04:55:09.283Z,14.78
2018-06-25T04:58:12.650Z,14.85
2018-06-25T05:01:16.061Z,14.67
2018-06-25T05:04:18.973Z,14.75
2018-06-25T05:07:22.106Z,14.84
2018-06-25T05:10:25.178Z,14.88
2018-06-25T05:13:28.251Z,15.08
2018-06-25T05:16:31.482Z,15.16
2018-06-25T05:19:34.908Z,15.43
2018-06-25T05:22:38.143Z,15.30
2018-06-25T05:25:41.294Z,15.61
2018-06-25T05:28:44.655Z,15.76
2018-06-25T05:31:47.889Z,15.86
2018-06-25T05:34:51.236Z,15.99
2018-06-25T05:37:54.248Z,16.22
2018-06-25T05:40:57.383Z,15.95
2018-06-25T05:44:00.663Z,16.28
2018-06-25T05:47:03.939Z,16.43
2018-06-25T05:50:07.243Z,16.54
2018-06-25T05:53:10.347Z,16.43
2018-06-25T05:56:13.735Z,16.37
2018-06-25T05:59:17.117Z,16.36
2018-06-25T06:02:20.394Z,16.58
2018-06-25T06:05:23.732Z,16.39
2018-06-25T06:08:26.862Z,16.72
2018-06-25T06:11:29.937Z,16.43
2018-06-25T06:14:33.276Z,16.91
2018-06-25T06:17:36.523Z,17.96
2018-06-25T06:20:40.272Z,18.69
2018-06-25T06:23:43.595Z,18.33
2018-06-25T06:26:46.939Z,17.80
2018-06-25T06:29:50.642Z,17.71
2018-06-25T06:32:53.833Z,18.04
2018-06-25T06:39:39.866Z,18.60
2018-06-25T06:42:43.299Z,18.05
2018-06-25T06:45:46.566Z,18.35
2018-06-25T06:48:49.887Z,17.93
2018-06-25T06:51:54.685Z,17.84
2018-06-25T06:54:58.699Z,18.12
2018-06-25T06:58:02.080Z,17.99
2018-06-25T07:01:05.605Z,18.14
2018-06-25T07:04:08.837Z,18.32
2018-06-25T07:07:12.084Z,18.22
2018-06-25T07:10:15.162Z,18.02
2018-06-25T07:13:18.452Z,17.47
2018-06-25T07:16:22.588Z,17.14
2018-06-25T07:19:25.761Z,16.93
2018-06-25T07:22:28.975Z,17.11
2018-06-25T07:25:32.073Z,16.97
2018-06-25T07:28:36.442Z,17.03
2018-06-25T07:31:39.698Z,16.95
2018-06-25T07:34:43.860Z,16.84
2018-06-25T07:37:48.813Z,16.82
2018-06-25T07:40:52.057Z,16.70
2018-06-25T07:43:55.202Z,16.85
2018-06-25T07:46:58.431Z,16.95
2018-06-25T07:50:02.764Z,16.98
2018-06-25T07:53:07.080Z,17.71
2018-06-25T07:56:10.396Z,17.67
2018-06-25T07:59:13.620Z,17.67
2018-06-25T08:02:17.996Z,18.03
2018-06-25T08:05:21.296Z,17.78
2018-06-25T08:08:24.971Z,17.99
2018-06-25T08:11:28.083Z,17.77
2018-06-25T08:14:31.227Z,17.97
2018-06-25T08:17:34.314Z,17.62
2018-06-25T08:20:37.716Z,17.84
2018-06-25T08:23:40.889Z,18.33
2018-06-25T08:26:44.143Z,18.30
2018-06-25T08:29:49.173Z,18.79
2018-06-25T08:32:52.986Z,18.47
2018-06-25T08:35:56.285Z,19.27
2018-06-25T08:39:00.392Z,19.04
2018-06-25T08:42:03.803Z,19.00
2018-06-25T08:45:07.212Z,19.00
2018-06-25T08:48:11.747Z,18.89
2018-06-25T08:51:15.017Z,19.01
2018-06-25T08:54:18.307Z,19.04
2018-06-25T08:57:21.555Z,19.04
2018-06-25T09:00:24.625Z,19.20
2018-06-25T09:03:27.800Z,19.70
2018-06-25T09:06:30.940Z,19.96
2018-06-25T09:09:34.174Z,20.36
2018-06-25T09:12:39.090Z,20.75
2018-06-25T09:15:42.521Z,21.11
2018-06-25T09:18:45.897Z,20.95
2018-06-25T09:21:50.105Z,20.41
2018-06-25T09:24:53.595Z,20.37
2018-06-25T09:28:01.778Z,19.80
2018-06-25T09:31:05.032Z,19.99
2018-06-25T09:34:13.844Z,20.96
2018-06-25T09:37:18.585Z,20.65
2018-06-25T09:40:22.412Z,20.55
2018-06-25T09:43:25.616Z,20.43
2018-06-25T09:46:29.335Z,21.18
2018-06-25T09:49:32.849Z,21.16
2018-06-25T09:52:36.411Z,21.93
2018-06-25T09:55:39.695Z,21.80
2018-06-25T09:58:43.213Z,21.48
2018-06-25T10:01:46.616Z,21.29
2018-06-25T10:04:50.133Z,21.73
2018-06-25T10:07:53.408Z,22.07
2018-06-25T10:10:56.691Z,21.67
2018-06-25T10:13:59.918Z,21.22
2018-06-25T10:17:03.180Z,20.82
2018-06-25T10:20:06.403Z,20.81
2018-06-25T10:23:09.524Z,21.50
2018-06-25T10:26:12.959Z,20.88
2018-06-25T10:29:16.452Z,21.36
2018-06-25T10:32:19.750Z,21.59
2018-06-25T10:35:23.007Z,21.62
2018-06-25T10:38:26.345Z,22.17
2018-06-25T10:41:29.622Z,22.19
2018-06-25T10:44:34.100Z,22.19
2018-06-25T10:47:37.388Z,22.06
2018-06-25T10:50:40.652Z,21.99
2018-06-25T10:53:44.087Z,21.89
2018-06-25T10:56:47.646Z,21.72
2018-06-25T10:59:50.872Z,22.12
2018-06-25T11:02:54.184Z,22.70
2018-06-25T11:18:37.242Z,22.93
2018-06-25T11:21:40.671Z,23.47
2018-06-25T11:24:44.120Z,24.65
2018-06-25T11:27:47.654Z,23.33
2018-06-25T11:30:51.084Z,22.25
2018-06-25T11:33:54.370Z,21.00
2018-06-25T11:36:57.658Z,21.13
2018-06-25T11:40:01.064Z,20.44
2018-06-25T11:43:04.474Z,20.72
2018-06-25T11:46:07.740Z,20.83
2018-06-25T11:49:11.035Z,21.08
2018-06-25T11:52:14.550Z,21.59
2018-06-25T11:55:18.138Z,22.47
2018-06-25T11:58:21.626Z,22.55
2018-06-25T12:01:25.056Z,22.79
2018-06-25T12:04:28.390Z,23.41
2018-06-25T12:07:31.696Z,22.02
2018-06-25T12:10:35.314Z,22.89
2018-06-25T12:13:38.674Z,23.32
2018-06-25T12:16:41.841Z,22.76
2018-06-25T12:19:45.149Z,22.16
2018-06-25T12:22:48.402Z,21.88
2018-06-25T12:28:54.590Z,22.34
2018-06-25T12:31:57.942Z,23.87
2018-06-25T12:35:01.310Z,24.23
2018-06-25T12:38:04.814Z,24.62
2018-06-25T12:41:09.155Z,24.81
2018-06-25T12:44:12.592Z,23.81
2018-06-25T12:47:16.446Z,22.74
2018-06-25T12:50:19.831Z,22.22
2018-06-25T12:53:22.961Z,21.82
2018-06-25T12:56:26.395Z,22.03
2018-06-25T12:59:30.486Z,22.73
2018-06-25T13:02:34.720Z,23.79
2018-06-25T13:05:38.336Z,23.47
2018-06-25T13:08:42.561Z,23.56
2018-06-25T13:11:47.709Z,23.29
2018-06-25T13:15:19.402Z,22.79
2018-06-25T13:18:22.830Z,22.77
2018-06-25T13:21:26.300Z,22.60
2018-06-25T13:24:30.027Z,22.29
2018-06-25T13:27:33.501Z,23.54
2018-06-25T13:30:39.136Z,24.94
2018-06-25T13:33:51.036Z,24.85
2018-06-25T13:36:55.183Z,23.94
2018-06-25T13:40:04.294Z,22.92
2018-06-25T13:43:07.372Z,22.95
2018-06-25T13:46:10.635Z,23.11
2018-06-25T13:49:13.981Z,22.86
2018-06-25T13:52:17.286Z,22.31
2018-06-25T13:55:20.593Z,23.03
2018-06-25T13:58:25.692Z,23.53
2018-06-25T14:01:30.037Z,23.13
2018-06-25T14:04:36.210Z,22.16
2018-06-25T14:07:42.017Z,22.21
2018-06-25T14:10:45.101Z,22.03
2018-06-25T14:13:50.918Z,21.92
2018-06-25T14:17:00.799Z,22.14
2018-06-25T14:20:04.501Z,21.98
2018-06-25T14:23:15.906Z,22.21
2018-06-25T14:26:19.176Z,22.83
2018-06-25T14:29:27.910Z,23.37
2018-06-25T14:33:03.813Z,23.73
2018-06-25T14:36:14.697Z,22.80
2018-06-25T14:39:19.897Z,22.50
2018-06-25T14:42:46.215Z,22.44
2018-06-25T14:45:56.175Z,22.33
2018-06-25T14:49:07.132Z,22.13
2018-06-25T14:52:30.573Z,21.83
2018-06-25T14:55:35.008Z,21.92
2018-06-25T14:58:40.788Z,22.30
2018-06-25T15:01:44.828Z,22.91
2018-06-25T15:04:55.058Z,23.40
2018-06-25T15:07:58.595Z,23.05
2018-06-25T15:11:14.100Z,22.79
2018-06-25T15:14:24.469Z,22.71
2018-06-25T15:17:42.497Z,22.23
2018-06-25T15:20:55.353Z,22.60
2018-06-25T15:24:04.527Z,22.18
2018-06-25T15:27:10.304Z,22.22
2018-06-25T15:30:40.133Z,21.93
2018-06-25T15:33:56.065Z,22.19
2018-06-25T15:37:00.564Z,22.38
2018-06-25T15:40:04.100Z,22.67
2018-06-25T15:43:09.445Z,21.71
2018-06-25T15:46:12.733Z,21.53
2018-06-25T15:49:16.109Z,21.86
2018-06-25T15:52:23.463Z,21.77
2018-06-25T15:55:26.760Z,22.35
2018-06-25T15:58:38.364Z,22.17
2018-06-25T16:01:44.828Z,21.88
2018-06-25T16:04:48.165Z,21.56
2018-06-25T16:07:51.635Z,22.06
2018-06-25T16:11:13.970Z,22.73
2018-06-25T16:14:30.865Z,22.84
2018-06-25T16:17:36.334Z,22.54
2018-06-25T16:20:40.722Z,22.41
2018-06-25T16:23:43.799Z,21.37
2018-06-25T16:26:47.743Z,21.06
2018-06-25T16:29:50.958Z,21.34
2018-06-25T16:33:02.851Z,21.76
2018-06-25T16:36:05.936Z,22.20
2018-06-25T16:39:10.820Z,22.21
2018-06-25T16:42:14.887Z,22.15
2018-06-25T16:45:17.874Z,21.75
2018-06-25T16:48:21.221Z,21.40
2018-06-25T16:51:24.465Z,21.32
2018-06-25T16:54:27.681Z,22.09
2018-06-25T16:57:31.769Z,22.09
2018-06-25T17:00:34.878Z,22.56
2018-06-25T17:03:37.937Z,22.50
2018-06-25T17:06:41.006Z,21.79
2018-06-25T17:09:44.132Z,21.68
2018-06-25T17:12:47.257Z,21.48
2018-06-25T17:15:50.184Z,21.43
2018-06-25T17:18:54.331Z,23.73
2018-06-25T17:21:57.322Z,24.29
2018-06-25T17:25:00.525Z,24.45
2018-06-25T17:28:03.801Z,24.27
2018-06-25T17:31:07.078Z,23.84
2018-06-25T17:34:10.401Z,23.65
2018-06-25T17:37:13.533Z,24.32
2018-06-25T17:40:16.632Z,24.04
2018-06-25T17:43:19.812Z,23.25
2018-06-25T17:46:22.964Z,23.09
2018-06-25T17:49:26.040Z,23.47
2018-06-25T17:52:29.230Z,23.38
2018-06-25T17:55:32.899Z,22.75
2018-06-25T17:58:35.957Z,21.75
2018-06-25T18:01:38.945Z,21.29
2018-06-25T18:04:42.437Z,21.16
2018-06-25T18:07:45.588Z,20.70
2018-06-25T18:10:49.910Z,20.43
2018-06-25T18:13:58.523Z,20.07
2018-06-25T18:17:01.729Z,19.81
2018-06-25T18:20:04.900Z,19.59
2018-06-25T18:23:11.490Z,19.48
2018-06-25T18:26:17.954Z,19.32
2018-06-25T18:29:21.011Z,19.15
2018-06-25T18:32:25.076Z,19.07
2018-06-25T18:35:29.337Z,18.89
2018-06-25T18:38:32.518Z,18.73
2018-06-25T18:41:35.589Z,18.69
2018-06-25T18:44:38.542Z,18.78
2018-06-25T18:47:41.622Z,19.07
2018-06-25T18:50:44.588Z,19.23
2018-06-25T18:53:47.884Z,19.39
2018-06-25T18:56:50.873Z,19.35
2018-06-25T18:59:53.931Z,19.18
2018-06-25T19:02:58.211Z,19.14
2018-06-25T19:06:01.182Z,18.98
2018-06-25T19:09:07.205Z,18.82
2018-06-25T19:12:10.286Z,18.66
2018-06-25T19:15:13.303Z,18.34
2018-06-25T19:18:16.358Z,18.04
2018-06-25T19:21:23.002Z,17.82
2018-06-25T19:24:26.063Z,17.64
2018-06-25T19:27:29.289Z,17.45
2018-06-25T19:30:32.901Z,17.21
2018-06-25T19:33:36.137Z,17.05
2018-06-25T19:36:39.176Z,16.86
2018-06-25T19:39:42.149Z,16.68
2018-06-25T19:42:45.466Z,16.47
2018-06-25T19:45:48.424Z,16.22
2018-06-25T19:48:51.453Z,16.09
2018-06-25T19:51:54.387Z,15.96
2018-06-25T19:54:57.361Z,15.87
2018-06-25T19:58:00.539Z,15.79
2018-06-25T20:01:03.501Z,15.72
2018-06-25T20:04:06.669Z,15.71
2018-06-25T20:07:09.668Z,15.69
2018-06-25T20:10:13.454Z,15.61
2018-06-25T20:13:16.461Z,15.58
2018-06-25T20:16:19.400Z,15.62
2018-06-25T20:19:22.449Z,15.67
2018-06-25T20:22:26.237Z,15.70
2018-06-25T20:25:29.250Z,15.66
2018-06-25T20:28:32.201Z,15.64
2018-06-25T20:31:35.420Z,15.59
2018-06-25T20:34:38.653Z,15.42
2018-06-25T20:37:41.698Z,15.33
2018-06-25T20:40:44.756Z,15.32
2018-06-25T20:43:47.760Z,15.28
2018-06-25T20:46:50.862Z,15.26
2018-06-25T20:49:53.894Z,15.21
2018-06-25T20:53:01.912Z,15.10
2018-06-25T20:56:05.068Z,14.98
2018-06-25T20:59:08.135Z,14.80
2018-06-25T21:02:11.354Z,14.65
2018-06-25T21:05:14.734Z,14.63
2018-06-25T21:08:17.763Z,14.70
2018-06-25T21:11:20.850Z,14.71
2018-06-25T21:14:23.891Z,14.57
2018-06-25T21:17:26.936Z,14.35
2018-06-25T21:20:29.930Z,14.18
2018-06-25T21:23:32.973Z,13.91
2018-06-25T21:26:36.088Z,13.73
2018-06-25T21:29:39.231Z,13.60
2018-06-25T21:32:42.503Z,13.57
2018-06-25T21:35:46.452Z,13.50
2018-06-25T21:38:49.867Z,13.42
2018-06-25T21:41:53.025Z,13.40
2018-06-25T21:44:56.151Z,13.35
2018-06-25T21:48:04.869Z,13.32
2018-06-25T21:51:08.080Z,13.40
2018-06-25T21:54:11.093Z,13.47
2018-06-25T22:00:36.250Z,13.55
2018-06-25T22:03:39.308Z,13.47
2018-06-25T22:06:42.363Z,13.41
2018-06-25T22:09:45.377Z,13.37
2018-06-25T22:12:48.477Z,13.34
2018-06-25T22:15:51.457Z,13.31
2018-06-25T22:18:54.437Z,13.30
2018-06-25T22:21:57.395Z,13.36
2018-06-25T22:25:00.391Z,13.38
2018-06-25T22:28:03.497Z,13.38
2018-06-25T22:31:06.453Z,13.42
2018-06-25T22:34:09.495Z,13.43
2018-06-25T22:37:12.574Z,13.34
2018-06-25T22:40:15.597Z,13.20
2018-06-25T22:43:18.665Z,13.11
2018-06-25T22:46:21.794Z,13.05
2018-06-25T22:49:25.187Z,13.01
2018-06-25T22:52:28.196Z,13.02
2018-06-25T22:55:31.946Z,13.01
2018-06-25T22:58:34.976Z,13.04
2018-06-25T23:01:37.906Z,13.12
2018-06-25T23:04:42.337Z,13.14
2018-06-25T23:07:45.354Z,13.09
2018-06-25T23:10:49.331Z,13.04
2018-06-25T23:13:54.910Z,13.01
2018-06-25T23:16:57.895Z,12.96
2018-06-25T23:20:00.824Z,12.78
2018-06-25T23:23:03.872Z,12.61
2018-06-25T23:26:07.982Z,12.55
2018-06-25T23:29:11.041Z,12.56
2018-06-25T23:32:14.537Z,12.61
2018-06-25T23:35:18.015Z,12.61
2018-06-25T23:38:20.964Z,12.57
2018-06-25T23:41:24.056Z,12.59
2018-06-25T23:44:29.068Z,12.62
2018-06-25T23:47:32.039Z,12.69
2018-06-25T23:50:35.317Z,12.79
2018-06-25T23:53:38.364Z,13.02
2018-06-25T23:56:41.360Z,13.26
2018-06-25T23:59:44.360Z,13.52
